Time;durP1;ratioP1;P1;durP2;ratioP2;P2;SDS_P1;SDS_P2;PMS_P1;PMS_P2;Temp;Humidity;BMP_temperature;BMP_pressure;BME280_temperature;BME280_humidity;BME280_pressure;Samples;Min_cycle;Max_cycle;Signal;HPM_P1;HPM_P2
2023/01/05 00:01:45;;;;;;;1.10;0.73;;;;;;;;;;4978504;28;20238;-90
2023/01/05 00:04:49;;;;;;;1.07;0.90;;;;;;;;;;4977961;28;20187;-87
2023/01/05 00:07:54;;;;;;;1.33;0.70;;;;;;;;;;4966446;28;20646;-89
2023/01/05 00:22:50;;;;;;;1.00;0.80;;;;;;;;;;4966553;28;20179;-88
2023/01/05 00:25:54;;;;;;;1.40;0.87;;;;;;;;;;4955356;28;20179;-88
2023/01/05 00:28:59;;;;;;;1.90;0.90;;;;;;;;;;4965961;28;20183;-88
2023/01/05 00:32:03;;;;;;;0.60;0.60;;;;;;;;;;4976980;28;20219;-88
2023/01/05 00:35:08;;;;;;;0.93;0.77;;;;;;;;;;4955123;28;20186;-88
2023/01/05 00:38:12;;;;;;;1.80;0.77;;;;;;;;;;4988186;28;20183;-88
2023/01/05 00:41:16;;;;;;;0.90;0.67;;;;;;;;;;4954811;28;20567;-88
2023/01/05 00:44:21;;;;;;;0.50;0.50;;;;;;;;;;4955011;28;20551;-88
2023/01/05 00:47:24;;;;;;;2.83;0.90;;;;;;;;;;4976946;28;20198;-88
2023/01/05 00:50:28;;;;;;;0.90;0.80;;;;;;;;;;4954853;28;20218;-88
2023/01/05 00:53:33;;;;;;;0.80;0.63;;;;;;;;;;4965664;28;20654;-88
2023/01/05 00:56:37;;;;;;;0.70;0.67;;;;;;;;;;4965892;28;20187;-88
2023/01/05 00:59:41;;;;;;;0.90;0.70;;;;;;;;;;4954225;28;20297;-88
2023/01/05 01:02:46;;;;;;;0.70;0.70;;;;;;;;;;4954690;28;20642;-88
2023/01/05 01:05:57;;;;;;;2.33;0.90;;;;;;;;;;4976410;28;20516;-88
2023/01/05 01:09:01;;;;;;;2.07;0.90;;;;;;;;;;4954496;28;20183;-88
2023/01/05 01:12:06;;;;;;;0.83;0.70;;;;;;;;;;4975739;28;20579;-88
2023/01/05 01:15:20;;;;;;;1.50;0.80;;;;;;;;;;4976665;28;20183;-87
2023/01/05 01:18:25;;;;;;;0.73;0.70;;;;;;;;;;4988337;28;20187;-87
2023/01/05 01:21:29;;;;;;;1.10;0.90;;;;;;;;;;4976604;28;20222;-86
2023/01/05 01:24:33;;;;;;;1.17;0.80;;;;;;;;;;4965495;28;20187;-87
2023/01/05 01:27:37;;;;;;;0.70;0.60;;;;;;;;;;4976628;28;20174;-86
2023/01/05 01:30:41;;;;;;;0.73;0.53;;;;;;;;;;4976740;28;20218;-86
2023/01/05 01:33:45;;;;;;;2.13;0.77;;;;;;;;;;4955226;28;20179;-87
2023/01/05 01:36:49;;;;;;;1.00;0.90;;;;;;;;;;4976797;28;20183;-87
2023/01/05 01:39:58;;;;;;;2.10;0.80;;;;;;;;;;4975859;28;20215;-88
2023/01/05 01:43:10;;;;;;;0.80;0.70;;;;;;;;;;4965134;28;20202;-88
2023/01/05 01:46:16;;;;;;;0.60;0.60;;;;;;;;;;4987117;28;20183;-88
2023/01/05 01:49:21;;;;;;;0.97;0.60;;;;;;;;;;4953503;28;20199;-88
2023/01/05 01:52:27;;;;;;;0.60;0.60;;;;;;;;;;4953565;28;20194;-88
2023/01/05 01:55:33;;;;;;;0.90;0.73;;;;;;;;;;4954915;28;20626;-86
2023/01/05 01:58:38;;;;;;;0.70;0.60;;;;;;;;;;4965464;28;20183;-85
2023/01/05 02:01:42;;;;;;;0.57;0.57;;;;;;;;;;4990083;28;20235;-86
2023/01/05 02:04:47;;;;;;;1.63;0.80;;;;;;;;;;4966446;28;20202;-86
2023/01/05 02:07:51;;;;;;;0.50;0.50;;;;;;;;;;4976058;28;20207;-86
2023/01/05 02:11:15;;;;;;;1.00;0.70;;;;;;;;;;4975545;28;20226;-86
2023/01/05 02:14:32;;;;;;;1.57;0.70;;;;;;;;;;4954441;28;20183;-86
2023/01/05 02:17:59;;;;;;;1.33;0.57;;;;;;;;;;4978146;28;20234;-87
2023/01/05 02:21:25;;;;;;;0.70;0.60;;;;;;;;;;4953325;28;20230;-86
2023/01/05 02:25:13;;;;;;;1.00;0.70;;;;;;;;;;4975819;28;20183;-86
2023/01/05 02:28:55;;;;;;;0.87;0.80;;;;;;;;;;4953762;28;20183;-86
2023/01/05 02:32:14;;;;;;;1.13;0.60;;;;;;;;;;4954017;28;20210;-86
2023/01/05 02:35:32;;;;;;;1.97;0.70;;;;;;;;;;4976034;28;20619;-86
2023/01/05 02:38:52;;;;;;;0.87;0.60;;;;;;;;;;4953844;28;20179;-87
2023/01/05 02:42:08;;;;;;;1.00;0.63;;;;;;;;;;4977464;28;20230;-87
2023/01/05 02:45:15;;;;;;;1.80;0.50;;;;;;;;;;4956793;28;20183;-87
2023/01/05 02:48:20;;;;;;;0.80;0.70;;;;;;;;;;4957005;28;20179;-87
2023/01/05 02:51:32;;;;;;;0.77;0.70;;;;;;;;;;4978627;28;20214;-87
2023/01/05 02:54:43;;;;;;;1.57;0.80;;;;;;;;;;4968645;28;20194;-88
2023/01/05 02:57:56;;;;;;;0.80;0.60;;;;;;;;;;4957904;28;20183;-86
2023/01/05 03:01:08;;;;;;;0.70;0.50;;;;;;;;;;4967842;28;20227;-86
2023/01/05 03:04:21;;;;;;;0.60;0.50;;;;;;;;;;4961440;28;20191;-85
2023/01/05 03:07:28;;;;;;;1.00;0.50;;;;;;;;;;4961690;28;20179;-86
2023/01/05 03:14:29;;;;;;;0.60;0.57;;;;;;;;;;4972376;28;20183;-87
2023/01/05 03:17:44;;;;;;;0.43;0.40;;;;;;;;;;4961101;28;20186;-86
2023/01/05 03:20:51;;;;;;;0.90;0.60;;;;;;;;;;4971084;28;20223;-86
2023/01/05 03:38:37;;;;;;;0.80;0.50;;;;;;;;;;4967939;28;20175;-86
2023/01/05 03:41:42;;;;;;;0.70;0.60;;;;;;;;;;4955821;28;20571;-86
2023/01/05 03:44:48;;;;;;;0.60;0.60;;;;;;;;;;4977543;28;20175;-86
2023/01/05 03:47:54;;;;;;;2.43;0.70;;;;;;;;;;4981639;28;20183;-87
2023/01/05 03:51:03;;;;;;;0.40;0.40;;;;;;;;;;4958921;28;20215;-87
2023/01/05 03:54:08;;;;;;;4.60;0.80;;;;;;;;;;4980686;28;20623;-87
2023/01/05 03:57:14;;;;;;;0.50;0.40;;;;;;;;;;4981182;28;20199;-87
2023/01/05 04:00:19;;;;;;;0.60;0.60;;;;;;;;;;4980984;28;20215;-86
2023/01/05 04:03:26;;;;;;;0.53;0.53;;;;;;;;;;4958736;28;20187;-87
2023/01/05 04:06:31;;;;;;;0.83;0.50;;;;;;;;;;4958514;28;20187;-87
2023/01/05 04:09:35;;;;;;;0.67;0.53;;;;;;;;;;4991342;28;20642;-87
2023/01/05 04:12:40;;;;;;;0.50;0.50;;;;;;;;;;4978732;28;20202;-87
2023/01/05 04:15:44;;;;;;;0.70;0.70;;;;;;;;;;4957928;28;20619;-86
2023/01/05 04:18:50;;;;;;;0.40;0.40;;;;;;;;;;4979428;28;20622;-87
2023/01/05 04:21:56;;;;;;;1.10;0.53;;;;;;;;;;4979454;28;20223;-85
2023/01/05 04:25:01;;;;;;;0.50;0.47;;;;;;;;;;4979033;28;20531;-87
2023/01/05 04:28:07;;;;;;;1.37;0.50;;;;;;;;;;4968121;28;20199;-86
2023/01/05 04:31:11;;;;;;;0.60;0.53;;;;;;;;;;4978620;28;20207;-86
2023/01/05 04:34:16;;;;;;;0.60;0.40;;;;;;;;;;4979366;28;20179;-87
2023/01/05 04:37:22;;;;;;;0.80;0.40;;;;;;;;;;4967795;28;20179;-86
2023/01/05 04:40:25;;;;;;;2.10;0.50;;;;;;;;;;4956560;28;20218;-86
2023/01/05 04:43:31;;;;;;;0.40;0.40;;;;;;;;;;4968966;28;20199;-87
2023/01/05 04:46:38;;;;;;;0.63;0.50;;;;;;;;;;4958013;28;20642;-86
2023/01/05 04:49:42;;;;;;;0.90;0.60;;;;;;;;;;4979516;28;20187;-86
2023/01/05 04:52:47;;;;;;;0.50;0.40;;;;;;;;;;4960364;28;20206;-86
2023/01/05 04:55:52;;;;;;;0.40;0.40;;;;;;;;;;4978848;28;20179;-86
2023/01/05 04:58:57;;;;;;;0.30;0.30;;;;;;;;;;4966283;28;20175;-87
2023/01/05 05:02:01;;;;;;;0.50;0.30;;;;;;;;;;4978218;28;20230;-87
2023/01/05 05:05:07;;;;;;;0.50;0.50;;;;;;;;;;4978351;28;20186;-86
2023/01/05 05:08:12;;;;;;;0.40;0.40;;;;;;;;;;4967021;28;20183;-86
2023/01/05 05:11:17;;;;;;;2.10;0.50;;;;;;;;;;4988893;28;20226;-86
2023/01/05 05:14:24;;;;;;;0.40;0.40;;;;;;;;;;4977518;28;20203;-87
2023/01/05 05:17:29;;;;;;;0.53;0.40;;;;;;;;;;4977675;28;20615;-87
2023/01/05 05:20:33;;;;;;;0.30;0.30;;;;;;;;;;4977952;28;20218;-87
2023/01/05 05:23:37;;;;;;;0.30;0.30;;;;;;;;;;4988698;28;20183;-87
2023/01/05 05:26:42;;;;;;;1.03;0.40;;;;;;;;;;4966452;28;20179;-86
2023/01/05 05:29:46;;;;;;;0.30;0.30;;;;;;;;;;4977160;28;20179;-86
2023/01/05 05:32:50;;;;;;;0.30;0.30;;;;;;;;;;4966435;28;20171;-86
2023/01/05 05:35:54;;;;;;;0.53;0.30;;;;;;;;;;4988201;28;20198;-86
2023/01/05 05:38:58;;;;;;;0.20;0.20;;;;;;;;;;4977499;28;20202;-87
2023/01/05 05:42:02;;;;;;;0.30;0.30;;;;;;;;;;4977112;28;20223;-86
2023/01/05 05:45:07;;;;;;;0.50;0.33;;;;;;;;;;4988405;28;20178;-87
2023/01/05 05:48:11;;;;;;;1.13;0.30;;;;;;;;;;4977162;28;20187;-87
2023/01/05 05:51:15;;;;;;;1.37;0.40;;;;;;;;;;4977335;28;20202;-87
2023/01/05 05:54:19;;;;;;;0.50;0.30;;;;;;;;;;4987850;28;20512;-87
2023/01/05 05:57:24;;;;;;;0.40;0.30;;;;;;;;;;4976850;28;20190;-86
2023/01/05 06:00:28;;;;;;;0.30;0.30;;;;;;;;;;4976166;28;20222;-86
2023/01/05 06:03:32;;;;;;;0.30;0.30;;;;;;;;;;4965477;28;20175;-87
2023/01/05 06:06:37;;;;;;;5.07;2.20;;;;;;;;;;4965224;28;20194;-87
2023/01/05 06:09:41;;;;;;;2.83;1.70;;;;;;;;;;4964949;28;20535;-86
2023/01/05 06:12:45;;;;;;;0.60;0.60;;;;;;;;;;4976237;28;20194;-87
2023/01/05 06:15:50;;;;;;;0.50;0.50;;;;;;;;;;4976449;28;20182;-87
2023/01/05 06:18:54;;;;;;;0.40;0.40;;;;;;;;;;4976047;28;20178;-86
2023/01/05 06:21:58;;;;;;;0.40;0.33;;;;;;;;;;4976164;28;20226;-87
2023/01/05 06:25:03;;;;;;;0.40;0.40;;;;;;;;;;4965251;28;20179;-86
2023/01/05 06:28:07;;;;;;;0.67;0.47;;;;;;;;;;4975831;28;20179;-88
2023/01/05 06:31:11;;;;;;;2.53;0.93;;;;;;;;;;4964476;28;20214;-86
2023/01/05 06:34:15;;;;;;;2.53;0.60;;;;;;;;;;4976327;28;20634;-87
2023/01/05 06:37:19;;;;;;;0.90;0.50;;;;;;;;;;4977111;28;20179;-86
2023/01/05 06:40:23;;;;;;;2.20;0.70;;;;;;;;;;4969085;28;20230;-86
2023/01/05 06:43:27;;;;;;;0.30;0.30;;;;;;;;;;4936523;29;20176;-87
2023/01/05 06:46:32;;;;;;;0.67;0.40;;;;;;;;;;4945764;29;20184;-87
2023/01/05 06:49:36;;;;;;;1.17;0.37;;;;;;;;;;4934771;29;20183;-87
2023/01/05 06:52:40;;;;;;;0.47;0.47;;;;;;;;;;4945339;29;20187;-87
2023/01/05 06:55:44;;;;;;;0.30;0.30;;;;;;;;;;4945687;29;20187;-87
2023/01/05 06:58:48;;;;;;;0.60;0.40;;;;;;;;;;4934503;29;20183;-86
2023/01/05 07:02:55;;;;;;;0.47;0.47;;;;;;;;;;4945263;29;20231;-88
2023/01/05 07:06:08;;;;;;;0.70;0.70;;;;;;;;;;4967771;28;20187;-88
2023/01/05 07:09:12;;;;;;;0.93;0.40;;;;;;;;;;4945222;29;20187;-88
2023/01/05 07:12:17;;;;;;;0.70;0.40;;;;;;;;;;4946161;29;20199;-89
2023/01/05 07:15:21;;;;;;;0.20;0.20;;;;;;;;;;4944963;29;20180;-88
2023/01/05 07:18:26;;;;;;;0.40;0.40;;;;;;;;;;4933638;29;20188;-87
2023/01/05 07:21:30;;;;;;;0.30;0.30;;;;;;;;;;4935719;29;20227;-87
2023/01/05 07:24:34;;;;;;;0.40;0.40;;;;;;;;;;4938083;29;20192;-87
2023/01/05 07:27:38;;;;;;;5.07;4.53;;;;;;;;;;4949426;29;20180;-87
2023/01/05 07:30:42;;;;;;;1.60;1.50;;;;;;;;;;4937368;29;20215;-87
2023/01/05 07:33:46;;;;;;;0.40;0.40;;;;;;;;;;4948957;29;20195;-87
2023/01/05 07:36:51;;;;;;;0.70;0.60;;;;;;;;;;4937531;29;20188;-88
2023/01/05 07:39:55;;;;;;;0.83;0.60;;;;;;;;;;4960026;29;20184;-87
2023/01/05 07:43:00;;;;;;;5.07;3.60;;;;;;;;;;4948362;29;20211;-88
2023/01/05 07:46:04;;;;;;;0.60;0.47;;;;;;;;;;4948524;29;20496;-91
2023/01/05 07:49:12;;;;;;;0.83;0.50;;;;;;;;;;4948851;29;20187;-91
2023/01/05 07:52:16;;;;;;;1.13;0.40;;;;;;;;;;4948177;29;20200;-91
2023/01/05 07:55:21;;;;;;;0.67;0.67;;;;;;;;;;4970666;28;20183;-89
2023/01/05 07:58:27;;;;;;;1.30;0.47;;;;;;;;;;4947009;29;20643;-89
2023/01/05 08:01:31;;;;;;;0.80;0.60;;;;;;;;;;4958361;29;20211;-89
2023/01/05 08:04:35;;;;;;;0.87;0.50;;;;;;;;;;4958516;29;20183;-89
2023/01/05 08:07:39;;;;;;;2.10;0.50;;;;;;;;;;4947368;29;20199;-89
2023/01/05 08:10:43;;;;;;;0.80;0.80;;;;;;;;;;4947374;29;20219;-89
2023/01/05 08:14:01;;;;;;;2.70;0.60;;;;;;;;;;4958391;29;20183;-89
2023/01/05 08:17:05;;;;;;;0.70;0.57;;;;;;;;;;4936659;29;20195;-90
2023/01/05 08:20:09;;;;;;;0.60;0.50;;;;;;;;;;4935879;29;20199;-90
2023/01/05 08:23:14;;;;;;;1.10;0.90;;;;;;;;;;4947342;29;20211;-90
2023/01/05 08:26:22;;;;;;;0.77;0.70;;;;;;;;;;4947676;29;20183;-90
2023/01/05 08:29:27;;;;;;;4.93;2.70;;;;;;;;;;4947457;29;20631;-89
2023/01/05 08:32:31;;;;;;;1.90;1.80;;;;;;;;;;4946945;28;20538;-89
2023/01/05 08:35:40;;;;;;;1.50;1.00;;;;;;;;;;4947062;29;20187;-89
2023/01/05 08:38:48;;;;;;;2.50;1.53;;;;;;;;;;4936760;29;20184;-90
2023/01/05 08:41:53;;;;;;;0.80;0.80;;;;;;;;;;4936110;29;20227;-90
2023/01/05 08:44:58;;;;;;;4.17;0.90;;;;;;;;;;4935586;29;20184;-89
2023/01/05 08:48:02;;;;;;;2.40;0.93;;;;;;;;;;4946926;29;20551;-90
2023/01/05 08:51:06;;;;;;;5.40;1.23;;;;;;;;;;4946921;29;20223;-90
2023/01/05 08:54:10;;;;;;;3.97;1.23;;;;;;;;;;4947456;29;20176;-90
2023/01/05 08:57:14;;;;;;;9.70;1.43;;;;;;;;;;4947603;29;20191;-90
2023/01/05 09:00:20;;;;;;;5.17;0.93;;;;;;;;;;4947001;29;20223;-88
2023/01/05 09:03:24;;;;;;;7.67;1.60;;;;;;;;;;4957389;29;20211;-89
2023/01/05 09:06:28;;;;;;;5.30;1.50;;;;;;;;;;4947495;29;20183;-90
2023/01/05 09:09:33;;;;;;;9.03;1.47;;;;;;;;;;4947083;29;20184;-90
2023/01/05 09:12:38;;;;;;;8.20;1.60;;;;;;;;;;4946877;29;20191;-90
2023/01/05 09:15:42;;;;;;;6.60;1.30;;;;;;;;;;4947153;29;20183;-91
2023/01/05 09:18:46;;;;;;;3.97;1.70;;;;;;;;;;4947007;29;20184;-90
2023/01/05 09:21:53;;;;;;;6.90;1.40;;;;;;;;;;4957625;28;20590;-90
2023/01/05 09:24:57;;;;;;;7.40;2.03;;;;;;;;;;4935275;29;20187;-90
2023/01/05 09:28:02;;;;;;;6.27;1.67;;;;;;;;;;4957044;29;20199;-90
2023/01/05 09:31:14;;;;;;;6.87;1.37;;;;;;;;;;4957056;29;20207;-91
2023/01/05 09:34:18;;;;;;;4.03;2.30;;;;;;;;;;4945942;29;20184;-90
2023/01/05 09:37:22;;;;;;;4.47;1.50;;;;;;;;;;4946091;29;20183;-90
2023/01/05 09:40:28;;;;;;;3.67;1.17;;;;;;;;;;4945726;29;20211;-91
2023/01/05 09:43:35;;;;;;;7.27;2.30;;;;;;;;;;4945178;28;20213;-91
2023/01/05 09:46:43;;;;;;;6.07;1.43;;;;;;;;;;4934953;29;20180;-91
2023/01/05 09:49:49;;;;;;;5.80;1.57;;;;;;;;;;4946097;29;20180;-91
2023/01/05 09:52:56;;;;;;;6.73;1.60;;;;;;;;;;4934528;29;20184;-91
2023/01/05 09:56:01;;;;;;;4.67;1.40;;;;;;;;;;4945699;29;20521;-91
2023/01/05 09:59:22;;;;;;;2.40;1.23;;;;;;;;;;4934506;29;20183;-90
2023/01/05 10:02:33;;;;;;;4.33;1.93;;;;;;;;;;4944842;29;20215;-91
2023/01/05 10:05:41;;;;;;;5.47;1.57;;;;;;;;;;4955864;29;20639;-90
2023/01/05 10:08:49;;;;;;;4.77;1.23;;;;;;;;;;4946190;29;20185;-91
2023/01/05 10:15:42;;;;;;;3.00;1.20;;;;;;;;;;4945813;29;20183;-91
2023/01/05 10:18:46;;;;;;;5.33;1.40;;;;;;;;;;4935369;29;20619;-91
2023/01/05 10:22:09;;;;;;;5.20;1.57;;;;;;;;;;4934643;29;20215;-90
2023/01/05 10:25:26;;;;;;;3.20;1.10;;;;;;;;;;4936258;29;20187;-90
2023/01/05 10:28:46;;;;;;;3.70;1.40;;;;;;;;;;4933734;29;20628;-90
2023/01/05 10:32:02;;;;;;;3.73;1.10;;;;;;;;;;4933183;29;20219;-90
2023/01/05 10:35:18;;;;;;;1.77;0.97;;;;;;;;;;4933963;29;20176;-90
2023/01/05 10:38:33;;;;;;;3.50;1.17;;;;;;;;;;4934325;29;20184;-91
2023/01/05 10:41:51;;;;;;;4.00;1.30;;;;;;;;;;4934048;29;20219;-90
2023/01/05 10:45:05;;;;;;;2.17;1.00;;;;;;;;;;4933650;29;20184;-90
2023/01/05 10:48:15;;;;;;;3.33;1.00;;;;;;;;;;4955509;29;20516;-90
2023/01/05 10:51:20;;;;;;;3.20;1.00;;;;;;;;;;4933612;29;20698;-88
2023/01/05 10:54:47;;;;;;;10.57;5.03;;;;;;;;;;4955699;29;20180;-88
2023/01/05 10:57:52;;;;;;;10.37;6.20;;;;;;;;;;4944789;29;20184;-91
2023/01/05 11:01:20;;;;;;;9.40;4.53;;;;;;;;;;4944487;29;20222;-90
2023/01/05 11:04:24;;;;;;;11.97;6.63;;;;;;;;;;4933193;29;20203;-90
2023/01/05 11:07:28;;;;;;;11.63;4.93;;;;;;;;;;4944088;29;20183;-90
2023/01/05 11:10:59;;;;;;;5.17;2.90;;;;;;;;;;4933668;29;20218;-91
2023/01/05 11:14:04;;;;;;;4.60;1.97;;;;;;;;;;4955396;29;20176;-91
2023/01/05 11:17:18;;;;;;;4.47;1.37;;;;;;;;;;4933334;29;20176;-90
2023/01/05 11:20:22;;;;;;;5.47;1.47;;;;;;;;;;4955366;29;20219;-90
2023/01/05 11:23:58;;;;;;;6.70;1.50;;;;;;;;;;4944352;29;20219;-90
2023/01/05 11:27:22;;;;;;;3.07;1.10;;;;;;;;;;4932824;29;20200;-91
2023/01/05 11:30:29;;;;;;;2.97;1.17;;;;;;;;;;4955676;29;20223;-92
2023/01/05 11:33:38;;;;;;;4.07;1.33;;;;;;;;;;4944358;29;20176;-90
2023/01/05 11:36:49;;;;;;;7.97;1.13;;;;;;;;;;4945185;29;20501;-90
2023/01/05 11:39:56;;;;;;;2.63;0.93;;;;;;;;;;4935889;29;20183;-90
2023/01/05 11:43:13;;;;;;;7.93;1.63;;;;;;;;;;4941591;29;20203;-92
2023/01/05 11:46:18;;;;;;;2.43;1.43;;;;;;;;;;4952925;29;20184;-92
2023/01/05 11:49:22;;;;;;;5.23;1.53;;;;;;;;;;4952354;29;20179;-92
2023/01/05 11:52:34;;;;;;;7.77;1.73;;;;;;;;;;4948973;29;20643;-91
2023/01/05 11:55:38;;;;;;;3.87;2.00;;;;;;;;;;4944298;29;20188;-91
2023/01/05 11:58:44;;;;;;;6.77;1.43;;;;;;;;;;4943996;29;20640;-91
2023/01/05 12:02:11;;;;;;;6.87;1.43;;;;;;;;;;4944069;29;20223;-91
2023/01/05 12:05:25;;;;;;;6.10;1.20;;;;;;;;;;4944082;29;20180;-92
2023/01/05 12:08:37;;;;;;;4.40;1.20;;;;;;;;;;4946331;29;20188;-91
2023/01/05 12:11:53;;;;;;;4.33;1.27;;;;;;;;;;4937622;29;20227;-91
2023/01/05 12:15:38;;;;;;;7.57;1.30;;;;;;;;;;4959926;29;20179;-90
2023/01/05 12:19:00;;;;;;;5.33;1.23;;;;;;;;;;4939432;29;20187;-90
2023/01/05 12:22:29;;;;;;;5.40;1.57;;;;;;;;;;4939089;29;20223;-90
2023/01/05 12:25:45;;;;;;;4.27;1.43;;;;;;;;;;4937487;29;20184;-88
2023/01/05 12:29:26;;;;;;;5.83;1.27;;;;;;;;;;4937016;29;20183;-89
2023/01/05 12:32:43;;;;;;;3.47;1.37;;;;;;;;;;4937548;29;20183;-89
2023/01/05 12:36:03;;;;;;;9.30;1.67;;;;;;;;;;4942439;29;20203;-89
2023/01/05 12:39:35;;;;;;;4.57;1.23;;;;;;;;;;4955950;29;20180;-89
2023/01/05 12:42:58;;;;;;;3.70;1.60;;;;;;;;;;4956426;29;20180;-90
2023/01/05 12:46:25;;;;;;;6.60;2.00;;;;;;;;;;4945033;29;20184;-89
2023/01/05 12:49:38;;;;;;;6.37;1.93;;;;;;;;;;4944327;29;20176;-89
2023/01/05 12:52:46;;;;;;;5.00;1.30;;;;;;;;;;4955263;29;20184;-89
2023/01/05 12:55:55;;;;;;;6.57;1.37;;;;;;;;;;4943159;29;20179;-89
2023/01/05 12:59:29;;;;;;;5.57;1.57;;;;;;;;;;4954202;29;20188;-89
2023/01/05 13:02:36;;;;;;;8.03;2.07;;;;;;;;;;4942443;29;20175;-89
2023/01/05 13:05:44;;;;;;;8.83;2.10;;;;;;;;;;4941632;29;20191;-89
2023/01/05 13:09:12;;;;;;;4.33;1.80;;;;;;;;;;4941208;29;20187;-90
2023/01/05 13:12:16;;;;;;;13.07;6.87;;;;;;;;;;4943158;29;20220;-92
2023/01/05 13:15:28;;;;;;;6.23;2.23;;;;;;;;;;4940729;29;20175;-91
2023/01/05 13:18:36;;;;;;;6.00;1.80;;;;;;;;;;4939423;28;20551;-92
2023/01/05 13:21:44;;;;;;;6.10;1.70;;;;;;;;;;4950842;29;20219;-91
2023/01/05 13:24:56;;;;;;;6.03;1.63;;;;;;;;;;4939245;29;20591;-91
2023/01/05 13:28:00;;;;;;;11.87;2.17;;;;;;;;;;4950584;29;20195;-92
2023/01/05 13:31:13;;;;;;;8.23;1.83;;;;;;;;;;4962839;29;20675;-91
2023/01/05 13:34:59;;;;;;;11.53;2.57;;;;;;;;;;4938780;29;20678;-92
2023/01/05 13:38:29;;;;;;;13.50;2.13;;;;;;;;;;4938383;29;20179;-92
2023/01/05 13:41:43;;;;;;;7.03;1.90;;;;;;;;;;4937907;29;20222;-92
2023/01/05 13:45:09;;;;;;;9.00;2.40;;;;;;;;;;4938443;29;20215;-92
2023/01/05 13:48:25;;;;;;;13.77;8.30;;;;;;;;;;4936911;29;20184;-92
2023/01/05 13:51:58;;;;;;;13.37;7.13;;;;;;;;;;4936591;29;20219;-90
2023/01/05 13:55:08;;;;;;;13.83;2.70;;;;;;;;;;4947320;29;20184;-90
2023/01/05 13:58:44;;;;;;;10.13;2.30;;;;;;;;;;4935393;29;20195;-90
2023/01/05 14:01:49;;;;;;;7.67;2.17;;;;;;;;;;4934810;29;20219;-91
2023/01/05 14:04:53;;;;;;;10.80;1.97;;;;;;;;;;4935219;29;20207;-92
2023/01/05 14:08:01;;;;;;;12.57;2.17;;;;;;;;;;4937299;29;20183;-90
2023/01/05 14:11:24;;;;;;;5.90;1.70;;;;;;;;;;4935710;29;20231;-91
2023/01/05 14:15:08;;;;;;;8.97;2.50;;;;;;;;;;4935635;29;20184;-91
2023/01/05 14:18:51;;;;;;;10.30;2.67;;;;;;;;;;4935107;29;20188;-91
2023/01/05 14:21:58;;;;;;;10.97;1.97;;;;;;;;;;4935356;29;20223;-91
2023/01/05 14:25:36;;;;;;;11.90;2.00;;;;;;;;;;4935077;29;20211;-91
2023/01/05 14:28:43;;;;;;;8.30;1.83;;;;;;;;;;4935310;29;20203;-91
2023/01/05 14:31:49;;;;;;;9.97;1.90;;;;;;;;;;4935014;29;20698;-91
2023/01/05 14:34:57;;;;;;;10.80;2.17;;;;;;;;;;4945896;29;20172;-91
2023/01/05 14:38:06;;;;;;;9.60;2.37;;;;;;;;;;4934321;29;20179;-91
2023/01/05 14:41:22;;;;;;;8.40;1.90;;;;;;;;;;4934156;29;20222;-90
2023/01/05 14:44:39;;;;;;;9.97;2.00;;;;;;;;;;4945396;29;20579;-92
2023/01/05 14:47:49;;;;;;;8.53;2.70;;;;;;;;;;4956166;29;20200;-91
2023/01/05 14:51:15;;;;;;;8.37;2.50;;;;;;;;;;4933836;29;20215;-91
2023/01/05 14:54:57;;;;;;;7.87;2.33;;;;;;;;;;4934253;29;20183;-91
2023/01/05 14:58:40;;;;;;;9.17;1.77;;;;;;;;;;4950302;28;20179;-90
2023/01/05 15:01:54;;;;;;;9.43;2.00;;;;;;;;;;4934012;29;20219;-90
2023/01/05 15:05:03;;;;;;;5.37;2.00;;;;;;;;;;4944997;29;20219;-91
2023/01/05 15:08:28;;;;;;;8.47;1.70;;;;;;;;;;4955957;29;20195;-90
2023/01/05 15:12:00;;;;;;;9.17;1.90;;;;;;;;;;4944435;29;20226;-90
2023/01/05 15:15:25;;;;;;;9.80;2.40;;;;;;;;;;4933563;29;20187;-90
2023/01/05 15:18:54;;;;;;;11.07;1.87;;;;;;;;;;4933529;29;20635;-90
2023/01/05 15:22:17;;;;;;;13.00;1.80;;;;;;;;;;4933250;29;20690;-90
2023/01/05 15:25:30;;;;;;;13.17;2.50;;;;;;;;;;4933238;29;20568;-89
2023/01/05 15:29:09;;;;;;;12.37;2.20;;;;;;;;;;4933611;29;20195;-88
2023/01/05 15:32:31;;;;;;;7.73;2.07;;;;;;;;;;4943831;29;20219;-88
2023/01/05 15:35:46;;;;;;;7.47;2.47;;;;;;;;;;4933873;29;20184;-90
2023/01/05 15:38:50;;;;;;;8.10;3.33;;;;;;;;;;4944759;29;20524;-89
2023/01/05 15:41:59;;;;;;;6.67;1.80;;;;;;;;;;4933731;28;20690;-90
2023/01/05 15:45:06;;;;;;;7.67;2.50;;;;;;;;;;4948274;29;20207;-89
2023/01/05 15:48:15;;;;;;;11.57;2.40;;;;;;;;;;4949642;29;20203;-89
2023/01/05 15:51:30;;;;;;;13.40;3.63;;;;;;;;;;4937574;29;20223;-89
2023/01/05 15:54:34;;;;;;;9.53;2.63;;;;;;;;;;4948656;29;20180;-90
2023/01/05 15:57:39;;;;;;;10.27;2.57;;;;;;;;;;4948618;29;20187;-90
2023/01/05 16:01:02;;;;;;;11.37;2.60;;;;;;;;;;4948475;29;20223;-90
2023/01/05 16:04:11;;;;;;;16.63;8.30;;;;;;;;;;4947882;29;20216;-90
2023/01/05 16:07:52;;;;;;;8.03;2.87;;;;;;;;;;4959059;29;20180;-90
2023/01/05 16:11:00;;;;;;;11.80;2.23;;;;;;;;;;4937082;29;20227;-90
2023/01/05 16:14:12;;;;;;;13.07;2.13;;;;;;;;;;4947927;29;20188;-90
2023/01/05 16:17:20;;;;;;;6.93;2.27;;;;;;;;;;4947878;29;20184;-89
2023/01/05 16:20:26;;;;;;;5.77;1.90;;;;;;;;;;4948511;29;20585;-89
2023/01/05 16:23:29;;;;;;;8.07;1.90;;;;;;;;;;4947229;29;20202;-90
2023/01/05 16:26:35;;;;;;;12.23;2.30;;;;;;;;;;4958759;29;20180;-90
2023/01/05 16:29:43;;;;;;;9.43;2.27;;;;;;;;;;4958654;29;20184;-89
2023/01/05 16:32:55;;;;;;;9.77;1.90;;;;;;;;;;4958076;29;20180;-89
2023/01/05 16:36:20;;;;;;;12.70;4.17;;;;;;;;;;4936074;29;20184;-90
2023/01/05 16:39:30;;;;;;;9.17;2.80;;;;;;;;;;4947567;29;20184;-89
2023/01/05 16:42:45;;;;;;;7.77;2.07;;;;;;;;;;4968858;28;20180;-90
2023/01/05 16:45:50;;;;;;;9.63;2.07;;;;;;;;;;4946613;29;20377;-89
2023/01/05 16:48:59;;;;;;;9.57;1.83;;;;;;;;;;4947543;29;20176;-91
2023/01/05 16:52:06;;;;;;;8.63;2.93;;;;;;;;;;4946415;29;20219;-90
2023/01/05 16:55:23;;;;;;;8.80;2.20;;;;;;;;;;4935858;29;20176;-90
2023/01/05 16:58:27;;;;;;;9.23;2.07;;;;;;;;;;4946597;29;20663;-90
2023/01/05 17:01:42;;;;;;;12.73;2.00;;;;;;;;;;4946574;29;20219;-90
2023/01/05 17:04:47;;;;;;;8.80;2.40;;;;;;;;;;4957576;29;20683;-90
2023/01/05 17:08:16;;;;;;;11.80;2.40;;;;;;;;;;4946649;29;20184;-89
2023/01/05 17:11:20;;;;;;;9.63;2.50;;;;;;;;;;4935391;29;20226;-89
2023/01/05 17:14:27;;;;;;;14.23;5.40;;;;;;;;;;4946936;29;20187;-89
2023/01/05 17:17:31;;;;;;;12.40;5.33;;;;;;;;;;4935146;29;20536;-89
2023/01/05 17:20:40;;;;;;;8.77;3.00;;;;;;;;;;4935279;29;20214;-90
2023/01/05 17:23:47;;;;;;;16.03;2.23;;;;;;;;;;4957231;29;20183;-90
2023/01/05 17:26:52;;;;;;;8.83;2.43;;;;;;;;;;4934913;29;20180;-90
2023/01/05 17:29:56;;;;;;;8.37;2.30;;;;;;;;;;4957119;29;20187;-90
2023/01/05 17:33:01;;;;;;;10.60;4.30;;;;;;;;;;4934957;29;20199;-90
2023/01/05 17:36:06;;;;;;;11.17;2.67;;;;;;;;;;4945829;29;20191;-90
2023/01/05 17:39:16;;;;;;;6.93;2.73;;;;;;;;;;4956850;29;20183;-90
2023/01/05 17:45:43;;;;;;;9.03;2.30;;;;;;;;;;4956517;29;20208;-89
2023/01/05 17:48:47;;;;;;;9.27;2.57;;;;;;;;;;4945581;29;20195;-90
2023/01/05 17:51:51;;;;;;;13.30;3.60;;;;;;;;;;4945389;29;20219;-90
2023/01/05 17:54:56;;;;;;;9.87;3.73;;;;;;;;;;4956663;29;20180;-89
2023/01/05 17:58:00;;;;;;;14.33;6.40;;;;;;;;;;4945034;29;20208;-89
2023/01/05 18:01:05;;;;;;;10.27;3.57;;;;;;;;;;4934743;29;20223;-89
2023/01/05 18:04:10;;;;;;;16.57;4.23;;;;;;;;;;4956566;29;20183;-90
2023/01/05 18:07:14;;;;;;;22.00;14.80;;;;;;;;;;4934965;29;20516;-91
2023/01/05 18:10:24;;;;;;;11.27;5.80;;;;;;;;;;4945770;29;20223;-89
2023/01/05 18:13:28;;;;;;;12.17;4.33;;;;;;;;;;4934450;29;20195;-90
2023/01/05 18:16:32;;;;;;;8.47;2.90;;;;;;;;;;4946092;29;20175;-90
2023/01/05 18:19:36;;;;;;;15.37;2.90;;;;;;;;;;4957391;29;20176;-90
2023/01/05 18:22:41;;;;;;;11.87;2.40;;;;;;;;;;4945776;29;20187;-89
2023/01/05 18:25:46;;;;;;;10.83;2.00;;;;;;;;;;4945850;29;20223;-89
2023/01/05 18:28:51;;;;;;;9.37;2.67;;;;;;;;;;4934257;29;20204;-89
2023/01/05 18:31:56;;;;;;;11.30;2.13;;;;;;;;;;4934597;29;20223;-90
2023/01/05 18:35:01;;;;;;;13.50;2.27;;;;;;;;;;4945024;29;20183;-90
2023/01/05 18:38:05;;;;;;;8.80;2.40;;;;;;;;;;4956015;29;20184;-90
2023/01/05 18:41:10;;;;;;;15.83;2.87;;;;;;;;;;4944719;29;20220;-89
2023/01/05 18:44:15;;;;;;;9.80;2.17;;;;;;;;;;4944652;29;20199;-90
2023/01/05 18:47:19;;;;;;;10.63;2.50;;;;;;;;;;4933765;29;20191;-90
2023/01/05 18:50:24;;;;;;;9.20;2.60;;;;;;;;;;4955658;29;20219;-90
2023/01/05 18:53:28;;;;;;;15.47;2.90;;;;;;;;;;4945279;29;20179;-90
2023/01/05 18:56:32;;;;;;;13.13;2.37;;;;;;;;;;4944464;29;20171;-90
2023/01/05 18:59:37;;;;;;;9.67;2.83;;;;;;;;;;4956009;29;20184;-90
2023/01/05 19:02:41;;;;;;;13.77;2.77;;;;;;;;;;4945006;29;20183;-90
2023/01/05 19:05:45;;;;;;;10.70;2.77;;;;;;;;;;4944563;29;20215;-90
2023/01/05 19:08:50;;;;;;;13.67;2.20;;;;;;;;;;4944447;29;20655;-90
2023/01/05 19:11:54;;;;;;;11.60;2.87;;;;;;;;;;4933169;29;20227;-89
2023/01/05 19:14:58;;;;;;;11.73;2.40;;;;;;;;;;4944531;29;20188;-90
2023/01/05 19:18:03;;;;;;;9.23;2.40;;;;;;;;;;4946357;29;20188;-90
2023/01/05 19:21:06;;;;;;;11.93;2.70;;;;;;;;;;4958881;29;20223;-90
2023/01/05 19:24:16;;;;;;;10.53;2.10;;;;;;;;;;4937082;29;20655;-89
2023/01/05 19:27:21;;;;;;;8.93;2.10;;;;;;;;;;4947785;29;20195;-90
2023/01/05 19:30:25;;;;;;;8.23;1.90;;;;;;;;;;4959068;29;20219;-89
2023/01/05 19:33:30;;;;;;;10.17;2.37;;;;;;;;;;4947878;29;20179;-89